Flood From: 22-02-2018 16:00 Until: 23-02-2018 16:00 warning for: Flood Level: Yellow info button

Although rather usual in this region, locally or potentially dangerous phenomena are expected. (such as local winds, summer thunderstorms, rising streams or high waves) Be aware and pay attention to the latest weather updates, especially if you carry out activities exposed to weather or close to a stream or shoreline. 


Meteo18 Weather Cam more information Meteo18 Weather Cam


Thunder radar more information blitzortung!


Rain radar more information rain snow radar


Visit our other weather sites:

Template documentation
and downloads

And another site



Weather Underground History page Text

Daily Summary for April 1, 2017 Units:  English    Metric   Both
« Previous Day
Next Day »
Daily Weekly Monthly Yearly Custom
  High: Low: Average:
Temperature: TemperatureC °F 8.1 °F 10.8 °F
Dew Point: DewpointC °F 6.0 °F 8.1 °F
Humidity: Humidity % 59 % 84 %
Wind Speed: WindSpeedKMH mph 0.0 mph 5.1 mph
Wind Gust: WindSpeedGustKMH mph - -
Wind:- - SW
Pressure: PressurehPa in 1013.8 in -
Precipitation: 5.8 in    
Historical Graphs
 
 
Tabular Data for April 1, 2017
Time Temperature Dew Point Pressure Wind Wind Speed Wind Gust Humidity Rainfall Rate (Hourly)
TemperatureC °F DewpointC °F PressurehPa in Calm     Humidity % HourlyPrecipMM in
00:02 11.2 °F 10.4 °F 1015.5 in SW 4.8 mph 9.7 mph 95 % 2.5 in
00:12 11.2 °F 10.4 °F 1015.5 in SW 3.2 mph 9.7 mph 95 % 2.3 in
00:17 11.2 °F 10.4 °F 1015.5 in SSW 1.6 mph 9.7 mph 95 % 2.3 in
00:22 11.2 °F 10.4 °F 1015.5 in Calm   9.7 mph 95 % 2.3 in
00:27 11.1 °F 10.3 °F 1015.5 in WNW 3.2 mph 4.8 mph 95 % 2.0 in
00:32 10.9 °F 10.0 °F 1015.5 in West 4.8 mph 4.8 mph 94 % 2.0 in
00:42 10.6 °F 9.7 °F 1015.8 in WNW 1.6 mph 11.3 mph 94 % 1.5 in
00:52 10.3 °F 9.4 °F 1015.8 in Calm   11.3 mph 94 % 2.5 in
01:02 10.2 °F 9.3 °F 1015.5 in Calm   4.8 mph 94 % 3.0 in
01:07 10.1 °F 9.2 °F 1015.8 in Calm   3.2 mph 94 % 3.3 in
01:12 10.1 °F 9.2 °F 1015.8 in Calm   3.2 mph 94 % 3.3 in
01:17 10.1 °F 9.2 °F 1015.8 in SSW 1.6 mph 1.6 mph 94 % 3.6 in
01:22 10.1 °F 9.3 °F 1015.8 in Calm   3.2 mph 95 % 3.3 in
01:32 10.2 °F 9.4 °F 1015.5 in Calm   3.2 mph 95 % 3.6 in
01:42 10.2 °F 9.4 °F 1015.5 in SSE 1.6 mph 3.2 mph 95 % 3.8 in
01:47 10.3 °F 9.5 °F 1015.5 in Calm   3.2 mph 95 % 2.5 in
01:52 10.3 °F 9.5 °F 1015.5 in SW 4.8 mph 4.8 mph 95 % 2.5 in
01:57 10.3 °F 9.5 °F 1015.1 in South 3.2 mph 4.8 mph 95 % 2.0 in
02:02 10.3 °F 9.5 °F 1015.1 in SSW 1.6 mph 6.4 mph 95 % 1.5 in
02:07 10.3 °F 9.7 °F 1015.5 in SSW 3.2 mph 6.4 mph 96 % 1.5 in
02:12 10.2 °F 9.6 °F 1015.5 in South 3.2 mph 6.4 mph 96 % 1.5 in
02:17 10.2 °F 9.6 °F 1015.5 in SSW 1.6 mph 4.8 mph 96 % 1.3 in
02:22 10.2 °F 9.6 °F 1015.5 in SW 3.2 mph 4.8 mph 96 % 1.3 in
02:32 10.2 °F 9.6 °F 1015.1 in Calm   6.4 mph 96 % 1.0 in
02:42 10.2 °F 9.6 °F 1015.1 in South 3.2 mph 6.4 mph 96 % 0.8 in
02:47 10.1 °F 9.5 °F 1015.1 in SSW 3.2 mph 6.4 mph 96 % 0.8 in
02:52 10.2 °F 9.6 °F 1014.8 in South 3.2 mph 9.7 mph 96 % 0.8 in
02:57 10.2 °F 9.6 °F 1014.8 in SSW 1.6 mph 9.7 mph 96 % 0.8 in
03:02 10.2 °F 9.6 °F 1014.8 in Calm   9.7 mph 96 % 0.8 in
03:07 10.2 °F 9.6 °F 1014.8 in SSW 4.8 mph 6.4 mph 96 % 0.5 in
03:12 10.2 °F 9.6 °F 1014.8 in SW 4.8 mph 9.7 mph 96 % 0.5 in
03:17 10.2 °F 9.6 °F 1014.8 in SSW 6.4 mph 11.3 mph 96 % 0.5 in
03:22 10.1 °F 9.5 °F 1014.8 in SSW 8.0 mph 11.3 mph 96 % 0.3 in
03:27 10.1 °F 9.5 °F 1014.4 in SSW 1.6 mph 11.3 mph 96 % 0.3 in
03:32 10.1 °F 9.5 °F 1014.4 in SW 3.2 mph 11.3 mph 96 % 0.3 in
03:37 10.1 °F 9.5 °F 1014.4 in SW 1.6 mph 9.7 mph 96 % 0.3 in
03:42 10.0 °F 9.4 °F 1014.4 in South 1.6 mph 8.0 mph 96 % 0.0 in
03:47 10.0 °F 9.4 °F 1014.4 in SW 4.8 mph 8.0 mph 96 % 0.0 in
03:52 9.9 °F 9.3 °F 1014.4 in SSW 6.4 mph 6.4 mph 96 % 0.0 in
03:57 9.9 °F 9.3 °F 1014.4 in SSW 9.7 mph 9.7 mph 96 % 0.0 in
04:02 9.9 °F 9.3 °F 1014.4 in SSW 6.4 mph 12.9 mph 96 % 0.0 in
04:07 9.8 °F 9.2 °F 1014.4 in SSW 6.4 mph 12.9 mph 96 % 0.0 in
04:12 9.8 °F 9.2 °F 1014.4 in SSW 8.0 mph 12.9 mph 96 % 0.0 in
04:17 9.8 °F 9.2 °F 1014.4 in SSW 3.2 mph 11.3 mph 96 % 0.0 in
04:22 9.8 °F 9.2 °F 1014.4 in SSW 4.8 mph 9.7 mph 96 % 0.0 in
04:27 9.8 °F 9.2 °F 1014.4 in SW 6.4 mph 11.3 mph 96 % 0.0 in
04:32 9.7 °F 9.1 °F 1014.4 in South 6.4 mph 11.3 mph 96 % 0.0 in
04:42 9.6 °F 9.0 °F 1014.4 in SW 4.8 mph 11.3 mph 96 % 0.0 in
04:47 9.6 °F 9.0 °F 1014.4 in SSW 9.7 mph 12.9 mph 96 % 0.0 in
04:52 9.6 °F 9.0 °F 1014.1 in SSW 6.4 mph 12.9 mph 96 % 0.0 in
04:57 9.6 °F 9.0 °F 1014.1 in WSW 12.9 mph 12.9 mph 96 % 0.0 in
05:02 9.6 °F 9.0 °F 1014.1 in SW 8.0 mph 12.9 mph 96 % 0.0 in
05:07 9.6 °F 9.0 °F 1014.1 in SW 6.4 mph 14.5 mph 96 % 0.0 in
05:12 9.6 °F 9.0 °F 1014.1 in SW 8.0 mph 14.5 mph 96 % 0.0 in
05:17 9.6 °F 9.0 °F 1014.1 in SW 9.7 mph 12.9 mph 96 % 0.0 in
05:22 9.6 °F 9.0 °F 1014.1 in SW 6.4 mph 12.9 mph 96 % 0.0 in
05:27 9.6 °F 9.0 °F 1014.1 in SW 3.2 mph 14.5 mph 96 % 0.0 in
05:32 9.6 °F 9.0 °F 1014.1 in SSW 6.4 mph 14.5 mph 96 % 0.0 in
05:37 9.6 °F 9.0 °F 1014.1 in SW 4.8 mph 12.9 mph 96 % 0.0 in
05:42 9.6 °F 9.0 °F 1014.1 in SW 4.8 mph 12.9 mph 96 % 0.0 in
05:47 9.6 °F 9.0 °F 1014.1 in SW 3.2 mph 12.9 mph 96 % 0.0 in
05:52 9.6 °F 9.0 °F 1014.1 in SW 3.2 mph 12.9 mph 96 % 0.0 in
05:57 9.5 °F 8.9 °F 1014.1 in SSW 3.2 mph 12.9 mph 96 % 0.0 in
06:02 9.5 °F 8.9 °F 1014.1 in WSW 6.4 mph 12.9 mph 96 % 0.0 in
06:07 9.4 °F 8.6 °F 1014.1 in SW 8.0 mph 9.7 mph 95 % 0.0 in
06:12 9.4 °F 8.6 °F 1014.1 in WSW 11.3 mph 11.3 mph 95 % 0.0 in
06:17 9.4 °F 8.6 °F 1014.1 in WSW 6.4 mph 9.7 mph 95 % 0.0 in
06:22 9.4 °F 8.6 °F 1014.1 in South 3.2 mph 17.7 mph 95 % 0.0 in
06:27 9.4 °F 8.6 °F 1014.1 in SW 3.2 mph 17.7 mph 95 % 0.0 in
06:32 9.4 °F 8.6 °F 1014.1 in SSW 3.2 mph 9.7 mph 95 % 0.0 in
06:37 9.4 °F 8.6 °F 1014.1 in South 3.2 mph 9.7 mph 95 % 0.0 in
06:42 9.4 °F 8.6 °F 1014.1 in WSW 6.4 mph 9.7 mph 95 % 0.0 in
06:47 9.3 °F 8.5 °F 1014.1 in SW 4.8 mph 9.7 mph 95 % 0.0 in
06:57 9.3 °F 8.5 °F 1014.1 in SSW 3.2 mph 9.7 mph 95 % 0.0 in
07:02 9.3 °F 8.5 °F 1014.1 in SW 3.2 mph 9.7 mph 95 % 0.0 in
07:07 9.3 °F 8.5 °F 1014.1 in South 3.2 mph 8.0 mph 95 % 0.0 in
07:12 9.2 °F 8.4 °F 1014.1 in SW 3.2 mph 8.0 mph 95 % 0.0 in
07:17 9.2 °F 8.4 °F 1014.1 in SW 1.6 mph 8.0 mph 95 % 0.0 in
07:22 9.2 °F 8.4 °F 1014.1 in South 1.6 mph 8.0 mph 95 % 0.0 in
07:27 9.1 °F 8.3 °F 1014.1 in WSW 4.8 mph 6.4 mph 95 % 0.0 in
07:32 9.1 °F 8.3 °F 1014.1 in WSW 4.8 mph 6.4 mph 95 % 0.0 in
07:37 9.1 °F 8.3 °F 1014.1 in West 4.8 mph 11.3 mph 95 % 0.0 in
07:42 9.1 °F 8.3 °F 1014.1 in WSW 3.2 mph 11.3 mph 95 % 0.0 in
07:47 9.0 °F 8.2 °F 1014.1 in West 6.4 mph 11.3 mph 95 % 0.0 in
07:52 9.0 °F 8.2 °F 1014.4 in WSW 4.8 mph 11.3 mph 95 % 0.0 in
07:57 8.9 °F 8.1 °F 1014.4 in West 9.7 mph 9.7 mph 95 % 0.0 in
08:02 8.9 °F 8.0 °F 1014.4 in SW 4.8 mph 9.7 mph 94 % 0.0 in
08:12 9.0 °F 8.1 °F 1014.4 in Calm   9.7 mph 94 % 0.0 in
08:17 9.0 °F 8.1 °F 1014.4 in WSW 4.8 mph 8.0 mph 94 % 0.0 in
08:22 9.0 °F 8.1 °F 1014.4 in SW 3.2 mph 8.0 mph 94 % 0.0 in
08:27 9.0 °F 8.1 °F 1014.4 in WSW 3.2 mph 8.0 mph 94 % 0.0 in
08:32 9.0 °F 8.1 °F 1014.4 in WSW 6.4 mph 8.0 mph 94 % 0.0 in
08:37 8.9 °F 8.0 °F 1014.4 in WSW 6.4 mph 12.9 mph 94 % 0.0 in
08:42 8.9 °F 8.0 °F 1014.4 in WSW 3.2 mph 12.9 mph 94 % 0.0 in
08:47 9.0 °F 8.1 °F 1014.8 in WSW 1.6 mph 9.7 mph 94 % 0.0 in
08:52 8.9 °F 8.0 °F 1014.8 in SW 3.2 mph 9.7 mph 94 % 0.0 in
08:57 9.0 °F 8.1 °F 1014.8 in WSW 1.6 mph 9.7 mph 94 % 0.0 in
09:02 9.1 °F 8.2 °F 1014.8 in SW 3.2 mph 9.7 mph 94 % 0.0 in
09:07 9.1 °F 8.2 °F 1014.8 in West 4.8 mph 8.0 mph 94 % 0.0 in
09:12 9.0 °F 8.1 °F 1014.8 in WSW 6.4 mph 8.0 mph 94 % 0.0 in
09:17 9.0 °F 7.9 °F 1014.8 in WSW 8.0 mph 11.3 mph 93 % 0.0 in
09:22 9.1 °F 8.0 °F 1014.8 in WSW 8.0 mph 11.3 mph 93 % 0.0 in
09:32 9.1 °F 8.0 °F 1014.8 in West 3.2 mph 11.3 mph 93 % 0.0 in
09:37 9.1 °F 8.0 °F 1014.8 in SSW 3.2 mph 9.7 mph 93 % 0.0 in
09:42 9.1 °F 8.0 °F 1014.8 in SW 3.2 mph 9.7 mph 93 % 0.0 in
09:47 9.2 °F 8.1 °F 1014.8 in WSW 3.2 mph 11.3 mph 93 % 0.0 in
09:52 9.2 °F 8.1 °F 1014.8 in West 1.6 mph 11.3 mph 93 % 0.0 in
09:57 9.3 °F 8.1 °F 1015.1 in SW 9.7 mph 16.1 mph 92 % 0.0 in
10:02 9.3 °F 8.1 °F 1015.1 in West 6.4 mph 16.1 mph 92 % 0.0 in
10:07 9.3 °F 8.1 °F 1015.1 in SW 3.2 mph 14.5 mph 92 % 0.0 in
10:12 9.4 °F 8.2 °F 1015.1 in WSW 8.0 mph 14.5 mph 92 % 0.0 in
10:17 9.5 °F 8.3 °F 1015.1 in WSW 6.4 mph 14.5 mph 92 % 0.0 in
10:22 9.6 °F 8.2 °F 1015.1 in SW 8.0 mph 11.3 mph 91 % 0.0 in
10:27 9.6 °F 8.2 °F 1015.5 in SW 9.7 mph 16.1 mph 91 % 0.0 in
10:32 9.7 °F 8.3 °F 1015.5 in West 9.7 mph 16.1 mph 91 % 0.0 in
10:42 9.8 °F 8.4 °F 1015.5 in West 3.2 mph 14.5 mph 91 % 0.0 in
10:47 9.9 °F 8.3 °F 1015.1 in WSW 4.8 mph 12.9 mph 90 % 0.0 in
10:52 9.9 °F 8.3 °F 1015.5 in WSW 11.3 mph 12.9 mph 90 % 0.0 in
10:57 10.0 °F 8.4 °F 1015.5 in West 8.0 mph 12.9 mph 90 % 0.0 in
11:02 10.1 °F 8.4 °F 1015.5 in West 3.2 mph 12.9 mph 89 % 0.0 in
11:07 10.3 °F 8.6 °F 1015.5 in SSE 3.2 mph 12.9 mph 89 % 0.0 in
11:12 10.4 °F 8.5 °F 1015.1 in WSW 4.8 mph 11.3 mph 88 % 0.0 in
11:17 10.6 °F 8.9 °F 1015.1 in West 3.2 mph 12.9 mph 89 % 0.0 in
11:22 10.9 °F 9.0 °F 1015.1 in Calm   12.9 mph 88 % 0.0 in
11:27 11.1 °F 9.0 °F 1015.1 in West 6.4 mph 8.0 mph 87 % 0.0 in
11:32 10.9 °F 8.5 °F 1015.1 in West 8.0 mph 11.3 mph 85 % 0.0 in
11:37 10.9 °F 8.5 °F 1015.1 in West 3.2 mph 11.3 mph 85 % 0.0 in
11:42 10.9 °F 8.6 °F 1015.1 in WNW 4.8 mph 11.3 mph 86 % 0.0 in
11:47 10.9 °F 8.3 °F 1015.1 in West 8.0 mph 11.3 mph 84 % 0.0 in
11:52 11.1 °F 8.3 °F 1015.1 in West 8.0 mph 11.3 mph 83 % 0.0 in
11:57 11.3 °F 8.5 °F 1015.1 in West 4.8 mph 11.3 mph 83 % 0.0 in
12:02 11.4 °F 8.4 °F 1015.1 in WSW 9.7 mph 11.3 mph 82 % 0.0 in
12:07 11.3 °F 7.8 °F 1015.1 in West 8.0 mph 14.5 mph 79 % 0.0 in
12:12 11.3 °F 8.0 °F 1015.1 in West 8.0 mph 16.1 mph 80 % 0.0 in
12:17 11.3 °F 8.2 °F 1014.8 in West 8.0 mph 16.1 mph 81 % 0.0 in
12:22 11.4 °F 8.4 °F 1014.8 in WSW 8.0 mph 16.1 mph 82 % 0.0 in
12:27 11.8 °F 8.5 °F 1014.8 in WSW 3.2 mph 11.3 mph 80 % 0.0 in
12:32 12.2 °F 8.3 °F 1014.8 in West 1.6 mph 11.3 mph 77 % 0.0 in
12:37 12.4 °F 8.3 °F 1014.8 in WSW 11.3 mph 11.3 mph 76 % 0.0 in
12:42 12.7 °F 9.0 °F 1014.8 in SW 11.3 mph 17.7 mph 78 % 0.0 in
12:47 12.7 °F 9.0 °F 1014.4 in SSE 9.7 mph 17.7 mph 78 % 0.0 in
12:52 12.7 °F 9.2 °F 1014.8 in SW 9.7 mph 19.3 mph 79 % 0.0 in
12:57 12.8 °F 9.1 °F 1014.8 in SW 11.3 mph 19.3 mph 78 % 0.0 in
13:02 12.8 °F 8.7 °F 1014.8 in Calm   19.3 mph 76 % 0.0 in
13:12 12.8 °F 8.9 °F 1014.4 in West 9.7 mph 14.5 mph 77 % 0.0 in
13:17 12.6 °F 8.5 °F 1014.8 in West 8.0 mph 12.9 mph 76 % 0.0 in
13:22 12.8 °F 8.3 °F 1014.4 in West 6.4 mph 12.9 mph 74 % 0.0 in
13:27 12.8 °F 8.1 °F 1014.4 in West 1.6 mph 12.9 mph 73 % 0.0 in
13:32 13.1 °F 9.4 °F 1014.4 in West 3.2 mph 12.9 mph 78 % 0.0 in
13:37 13.1 °F 8.8 °F 1014.4 in SW 4.8 mph 12.9 mph 75 % 0.0 in
13:42 13.6 °F 8.0 °F 1014.4 in SW 14.5 mph 29.0 mph 69 % 0.0 in
13:52 12.7 °F 7.8 °F 1014.8 in WSW 11.3 mph 29.0 mph 72 % 0.0 in
13:57 12.5 °F 7.4 °F 1014.8 in WSW 8.0 mph 22.5 mph 71 % 0.0 in
14:02 12.9 °F 7.6 °F 1014.4 in West 17.7 mph 19.3 mph 70 % 0.0 in
14:12 13.4 °F 6.7 °F 1014.4 in WNW 3.2 mph 20.9 mph 64 % 0.0 in
14:17 13.7 °F 6.8 °F 1014.4 in NW 11.3 mph 20.9 mph 63 % 0.0 in
14:22 13.8 °F 6.6 °F 1014.4 in WSW 12.9 mph 17.7 mph 62 % 0.0 in
14:27 13.8 °F 6.9 °F 1014.4 in WSW 11.3 mph 25.7 mph 63 % 0.0 in
14:32 13.8 °F 7.1 °F 1014.4 in WSW 8.0 mph 25.7 mph 64 % 0.0 in
14:42 13.9 °F 7.4 °F 1014.4 in West 8.0 mph 19.3 mph 65 % 0.0 in
14:47 13.8 °F 6.6 °F 1014.1 in West 6.4 mph 16.1 mph 62 % 0.0 in
14:52 13.7 °F 6.8 °F 1014.1 in WSW 6.4 mph 14.5 mph 63 % 0.0 in
14:57 13.8 °F 6.2 °F 1014.4 in WSW 11.3 mph 17.7 mph 60 % 0.0 in
15:02 13.8 °F 6.9 °F 1014.1 in SSW 4.8 mph 17.7 mph 63 % 0.0 in
15:12 13.7 °F 6.8 °F 1014.4 in WSW 11.3 mph 22.5 mph 63 % 0.0 in
15:22 12.4 °F 7.9 °F 1014.4 in SW 14.5 mph 35.4 mph 74 % 0.0 in
15:32 11.6 °F 7.1 °F 1014.4 in West 16.1 mph 32.2 mph 74 % 0.0 in
15:37 11.2 °F 7.1 °F 1014.4 in WSW 16.1 mph 27.4 mph 76 % 0.0 in
15:42 10.9 °F 6.8 °F 1014.4 in WSW 14.5 mph 27.4 mph 76 % 0.0 in
15:52 11.0 °F 7.1 °F 1014.4 in SW 1.6 mph 25.7 mph 77 % 0.5 in
15:57 11.3 °F 6.8 °F 1014.4 in WSW 4.8 mph 17.7 mph 74 % 0.5 in
16:02 11.7 °F 7.0 °F 1014.4 in SW 4.8 mph 11.3 mph 73 % 0.5 in
16:12 12.2 °F 6.7 °F 1014.1 in SW 6.4 mph 8.0 mph 69 % 0.5 in
16:17 12.7 °F 7.2 °F 1014.1 in SW 8.0 mph 11.3 mph 69 % 0.5 in
16:22 13.0 °F 6.8 °F 1014.1 in SSW 9.7 mph 11.3 mph 66 % 0.5 in
16:32 13.5 °F 7.5 °F 1014.1 in WSW 9.7 mph 19.3 mph 67 % 0.5 in
16:42 14.0 °F 7.7 °F 1014.1 in SW 19.3 mph 20.9 mph 66 % 0.5 in
16:47 14.1 °F 7.8 °F 1014.1 in WSW 8.0 mph 22.5 mph 66 % 0.3 in
16:52 14.1 °F 7.8 °F 1014.1 in West 9.7 mph 22.5 mph 66 % 0.0 in
17:02 14.2 °F 8.4 °F 1014.1 in SW 17.7 mph 19.3 mph 68 % 0.0 in
17:07 14.4 °F 7.4 °F 1014.1 in SW 16.1 mph 20.9 mph 63 % 0.0 in
17:12 14.3 °F 6.4 °F 1014.1 in SW 9.7 mph 20.9 mph 59 % 0.0 in
17:17 14.2 °F 7.0 °F 1014.1 in SSW 17.7 mph 20.9 mph 62 % 0.0 in
17:22 14.2 °F 7.0 °F 1014.1 in WSW 12.9 mph 24.1 mph 62 % 0.0 in
17:32 14.3 °F 7.1 °F 1014.1 in SSW 12.9 mph 24.1 mph 62 % 0.0 in
17:42 13.9 °F 7.7 °F 1014.1 in WSW 11.3 mph 20.9 mph 66 % 0.0 in
17:47 13.9 °F 7.4 °F 1013.8 in WSW 9.7 mph 17.7 mph 65 % 0.0 in
17:52 14.1 °F 7.4 °F 1014.1 in SW 9.7 mph 17.7 mph 64 % 0.0 in
17:57 13.9 °F 7.7 °F 1014.1 in West 12.9 mph 22.5 mph 66 % 0.0 in
18:02 14.1 °F 8.1 °F 1014.1 in SW 9.7 mph 22.5 mph 67 % 0.0 in
18:07 14.2 °F 7.3 °F 1014.1 in West 3.2 mph 22.5 mph 63 % 0.0 in
18:12 14.3 °F 7.1 °F 1014.1 in SW 4.8 mph 22.5 mph 62 % 0.0 in
18:17 14.5 °F 7.1 °F 1014.1 in West 4.8 mph 22.5 mph 61 % 0.0 in
18:22 14.3 °F 6.9 °F 1014.1 in West 6.4 mph 22.5 mph 61 % 0.0 in
18:32 14.3 °F 7.8 °F 1014.1 in NNW 6.4 mph 14.5 mph 65 % 0.0 in
18:37 13.8 °F 8.0 °F 1014.1 in NW 1.6 mph 11.3 mph 68 % 0.0 in
18:42 13.4 °F 8.5 °F 1014.1 in NW 1.6 mph 9.7 mph 72 % 0.0 in
18:52 12.8 °F 8.3 °F 1014.4 in NNW 8.0 mph 8.0 mph 74 % 0.0 in
18:57 12.7 °F 8.6 °F 1014.4 in North 8.0 mph 9.7 mph 76 % 0.0 in
19:02 12.6 °F 8.7 °F 1014.4 in NNE 1.6 mph 9.7 mph 77 % 0.0 in
19:12 12.6 °F 8.5 °F 1014.4 in Calm   8.0 mph 76 % 0.0 in
19:17 12.6 °F 8.5 °F 1014.4 in Calm   6.4 mph 76 % 0.0 in
19:22 12.7 °F 8.8 °F 1014.4 in NNW 1.6 mph 6.4 mph 77 % 0.0 in
19:32 12.6 °F 8.5 °F 1014.4 in Calm   4.8 mph 76 % 0.0 in
19:37 12.6 °F 8.5 °F 1014.8 in West 1.6 mph 4.8 mph 76 % 0.0 in
19:42 12.5 °F 8.4 °F 1014.8 in North 1.6 mph 4.8 mph 76 % 0.0 in
19:47 12.4 °F 8.3 °F 1014.8 in Calm   4.8 mph 76 % 0.0 in
19:52 12.3 °F 8.2 °F 1014.8 in NNW 3.2 mph 4.8 mph 76 % 0.0 in
20:02 12.0 °F 8.1 °F 1014.8 in WNW 1.6 mph 4.8 mph 77 % 0.0 in
20:12 11.7 °F 7.8 °F 1015.1 in WNW 4.8 mph 4.8 mph 77 % 0.0 in
20:17 11.6 °F 7.7 °F 1015.1 in WSW 6.4 mph 8.0 mph 77 % 0.0 in
20:22 11.7 °F 7.6 °F 1015.1 in SW 4.8 mph 14.5 mph 76 % 0.0 in
20:27 11.6 °F 7.3 °F 1015.1 in WSW 6.4 mph 14.5 mph 75 % 0.0 in
20:32 11.4 °F 6.7 °F 1015.1 in WSW 3.2 mph 14.5 mph 73 % 0.0 in
20:37 11.4 °F 6.3 °F 1015.1 in SW 4.8 mph 9.7 mph 71 % 0.0 in
20:42 11.4 °F 6.3 °F 1015.1 in SW 1.6 mph 9.7 mph 71 % 0.0 in
20:47 11.3 °F 6.0 °F 1015.1 in SW 1.6 mph 9.7 mph 70 % 0.0 in
20:52 11.2 °F 6.5 °F 1015.1 in Calm   9.7 mph 73 % 0.0 in
21:02 11.0 °F 6.1 °F 1015.5 in Calm   3.2 mph 72 % 0.0 in
21:12 10.6 °F 6.4 °F 1015.5 in Calm   1.6 mph 75 % 0.0 in
21:17 10.4 °F 6.2 °F 1015.5 in Calm   1.6 mph 75 % 0.0 in
21:22 10.3 °F 6.4 °F 1015.5 in Calm   1.6 mph 77 % 0.0 in
21:32 10.3 °F 6.3 °F 1015.5 in Calm   1.6 mph 76 % 0.0 in
21:42 10.1 °F 6.3 °F 1015.8 in Calm   1.6 mph 77 % 0.0 in
21:52 9.5 °F 6.2 °F 1015.8 in Calm   1.6 mph 80 % 0.0 in
22:02 9.4 °F 6.3 °F 1015.8 in Calm   1.6 mph 81 % 0.0 in
22:12 9.5 °F 6.2 °F 1016.1 in Calm   1.6 mph 80 % 0.0 in
22:17 9.4 °F 6.3 °F 1016.1 in Calm   1.6 mph 81 % 0.0 in
22:27 9.3 °F 6.4 °F 1016.1 in Calm   1.6 mph 82 % 0.0 in
22:32 9.2 °F 6.3 °F 1016.1 in Calm   1.6 mph 82 % 0.0 in
22:37 9.1 °F 6.4 °F 1016.1 in Calm   1.6 mph 83 % 0.0 in
22:42 9.1 °F 6.7 °F 1016.1 in NE 3.2 mph 3.2 mph 85 % 0.0 in
22:47 8.9 °F 6.7 °F 1016.1 in NE 1.6 mph 3.2 mph 86 % 0.0 in
22:52 8.9 °F 6.7 °F 1016.1 in ENE 3.2 mph 3.2 mph 86 % 0.0 in
22:57 8.9 °F 6.7 °F 1016.1 in Calm   3.2 mph 86 % 0.0 in
23:02 8.9 °F 6.9 °F 1016.1 in Calm   3.2 mph 87 % 0.0 in
23:07 8.9 °F 6.7 °F 1016.1 in Calm   3.2 mph 86 % 0.0 in
23:12 8.8 °F 6.6 °F 1016.1 in Calm   1.6 mph 86 % 0.0 in
23:17 8.7 °F 6.7 °F 1016.5 in Calm     87 % 0.0 in
23:22 8.6 °F 6.6 °F 1016.5 in Calm     87 % 0.0 in
23:32 8.4 °F 6.5 °F 1016.5 in Calm     88 % 0.0 in
23:42 8.4 °F 6.4 °F 1016.5 in Calm     87 % 0.0 in
23:47 8.3 °F 6.4 °F 1016.5 in Calm     88 % 0.0 in
23:52 8.2 °F 6.3 °F 1016.5 in Calm     88 % 0.0 in
23:57 8.1 °F 6.4 °F 1016.5 in Calm     89 % 0.0 in
Meteo18
Compliments of Weather Underground - 4 mb

Script developed by  Jim McMurry - jmcmurry@mwt.net Adapted for the template by  Wim van der Kuil - Leuven-Template.eu

You find our weather info also at:

European Weather Network

Weather Underground

Equipment we use:

Weather-station
Davis Vue

Weather-program
Meteobridge

Weather-server
Raspberry PI 2 B+

Provider
1 and 1

Davis Vue

Meteobridge

Raspberry PI 2 B+

1 and 1